createdAt,value
2019-03-06T00:00:33.081Z,86.90
2019-03-06T00:03:01.314Z,86.50
2019-03-06T00:05:29.528Z,86.20
2019-03-06T00:07:57.760Z,86.00
2019-03-06T00:10:29.926Z,86.00
2019-03-06T00:12:58.450Z,86.20
2019-03-06T00:15:26.666Z,86.50
2019-03-06T00:17:55.206Z,86.20
2019-03-06T00:20:23.425Z,86.20
2019-03-06T00:22:51.664Z,86.20
2019-03-06T00:25:19.949Z,85.40
2019-03-06T00:27:48.191Z,86.10
2019-03-06T00:30:17.448Z,87.00
2019-03-06T00:32:45.952Z,86.50
2019-03-06T00:35:18.948Z,86.70
2019-03-06T00:37:47.293Z,86.70
2019-03-06T00:40:35.434Z,86.80
2019-03-06T00:43:03.677Z,86.20
2019-03-06T00:45:31.976Z,85.30
2019-03-06T00:48:00.528Z,85.40
2019-03-06T00:50:28.756Z,85.80
2019-03-06T00:52:56.979Z,86.20
2019-03-06T00:55:25.469Z,86.50
2019-03-06T00:57:53.705Z,87.30
2019-03-06T01:00:24.303Z,86.90
2019-03-06T01:02:52.549Z,85.40
2019-03-06T01:05:21.091Z,85.30
2019-03-06T01:07:50.964Z,85.90
2019-03-06T01:10:19.191Z,84.30
2019-03-06T01:12:47.417Z,86.50
2019-03-06T01:15:16.673Z,88.00
2019-03-06T01:17:44.896Z,89.30
2019-03-06T01:20:14.268Z,89.40
2019-03-06T01:22:42.485Z,88.80
2019-03-06T01:25:13.688Z,88.90
2019-03-06T01:27:41.908Z,87.70
2019-03-06T01:30:19.193Z,87.30
2019-03-06T01:32:49.056Z,87.90
2019-03-06T01:35:24.784Z,87.30
2019-03-06T01:37:57.497Z,87.50
2019-03-06T01:40:43.796Z,87.70
2019-03-06T01:43:16.644Z,87.90
2019-03-06T01:45:44.875Z,89.60
2019-03-06T01:48:13.381Z,89.00
2019-03-06T01:50:41.604Z,87.50
2019-03-06T01:53:09.837Z,86.80
2019-03-06T01:55:38.052Z,86.30
2019-03-06T01:58:06.273Z,86.50
2019-03-06T02:00:34.501Z,87.20
2019-03-06T02:03:02.726Z,87.10
2019-03-06T02:05:30.960Z,87.30
2019-03-06T02:07:59.180Z,88.00
2019-03-06T02:10:27.418Z,86.90
2019-03-06T02:12:55.632Z,85.60
2019-03-06T02:15:23.868Z,85.80
2019-03-06T02:17:52.344Z,85.10
2019-03-06T02:20:20.582Z,84.90
2019-03-06T02:22:48.796Z,85.90
2019-03-06T02:25:17.028Z,85.40
2019-03-06T02:27:45.624Z,84.20
2019-03-06T02:30:22.061Z,84.60
2019-03-06T02:32:50.604Z,84.80
2019-03-06T02:35:18.833Z,86.90
2019-03-06T02:37:47.051Z,86.30
2019-03-06T02:40:15.278Z,87.70
2019-03-06T02:42:43.492Z,86.80
2019-03-06T02:45:16.788Z,85.40
2019-03-06T02:47:45.006Z,86.30
2019-03-06T02:50:15.176Z,85.50
2019-03-06T02:52:43.399Z,85.10
2019-03-06T02:55:12.668Z,83.60
2019-03-06T02:57:45.193Z,83.30
2019-03-06T03:00:35.302Z,82.70
2019-03-06T03:03:09.345Z,83.60
2019-03-06T03:05:45.448Z,82.80
2019-03-06T03:08:13.664Z,81.40
2019-03-06T03:10:41.898Z,81.00
2019-03-06T03:13:10.118Z,80.40
2019-03-06T03:15:38.344Z,80.30
2019-03-06T03:18:06.564Z,81.00
2019-03-06T03:20:34.893Z,80.20
2019-03-06T03:23:03.117Z,80.10
2019-03-06T03:25:31.345Z,80.50
2019-03-06T03:27:59.564Z,80.60
2019-03-06T03:30:27.789Z,80.30
2019-03-06T03:32:56.011Z,79.60
2019-03-06T03:35:24.241Z,82.80
2019-03-06T03:37:52.462Z,84.90
2019-03-06T03:40:20.969Z,85.70
2019-03-06T03:42:49.187Z,87.40
2019-03-06T03:45:17.424Z,86.50
2019-03-06T03:47:45.879Z,86.90
2019-03-06T03:50:14.114Z,86.60
2019-03-06T03:52:42.607Z,85.70
2019-03-06T03:55:13.474Z,84.90
2019-03-06T03:57:41.693Z,85.80
2019-03-06T04:00:13.339Z,85.50
2019-03-06T04:02:41.810Z,85.10
2019-03-06T04:05:12.441Z,83.40
2019-03-06T04:07:40.666Z,81.90
2019-03-06T04:10:16.536Z,81.90
2019-03-06T04:12:44.756Z,82.40
2019-03-06T04:15:14.328Z,83.50
2019-03-06T04:17:42.836Z,82.60
2019-03-06T04:20:15.510Z,83.10
2019-03-06T04:22:43.725Z,83.60
2019-03-06T04:25:11.964Z,82.80
2019-03-06T04:27:40.173Z,80.80
2019-03-06T04:30:11.918Z,80.00
2019-03-06T04:32:40.145Z,79.50
2019-03-06T04:35:08.697Z,80.50
2019-03-06T04:37:37.234Z,81.00
2019-03-06T04:40:08.125Z,80.70
2019-03-06T04:42:36.653Z,80.70
2019-03-06T04:45:10.224Z,79.80
2019-03-06T04:47:38.458Z,81.30
2019-03-06T04:50:09.373Z,82.50
2019-03-06T04:52:37.601Z,84.10
2019-03-06T04:55:07.568Z,85.00
2019-03-06T04:57:35.860Z,84.50
2019-03-06T05:00:07.591Z,85.00
2019-03-06T05:02:35.809Z,85.10
2019-03-06T05:05:04.037Z,84.00
2019-03-06T05:07:32.253Z,84.00
2019-03-06T05:10:00.488Z,84.20
2019-03-06T05:12:28.709Z,84.30
2019-03-06T05:14:56.941Z,84.20
2019-03-06T05:17:32.640Z,82.90
2019-03-06T05:20:00.873Z,81.60
2019-03-06T05:22:29.088Z,82.30
2019-03-06T05:24:57.337Z,80.60
2019-03-06T05:27:25.909Z,80.10
2019-03-06T05:29:54.128Z,80.50
2019-03-06T05:32:29.918Z,79.70
2019-03-06T05:35:00.382Z,79.90
2019-03-06T05:37:44.016Z,79.10
2019-03-06T05:40:12.265Z,79.00
2019-03-06T05:42:40.468Z,78.30
2019-03-06T05:45:09.140Z,78.10
2019-03-06T05:47:37.352Z,79.50
2019-03-06T05:50:07.041Z,79.50
2019-03-06T05:52:35.246Z,79.00
2019-03-06T05:55:04.844Z,78.50
2019-03-06T05:57:33.065Z,80.20
2019-03-06T06:00:01.301Z,80.20
2019-03-06T06:02:29.585Z,81.50
2019-03-06T06:04:58.089Z,80.70
2019-03-06T06:07:26.316Z,81.50
2019-03-06T06:09:56.284Z,83.70
2019-03-06T06:12:24.658Z,82.90
2019-03-06T06:14:52.889Z,83.70
2019-03-06T06:17:21.308Z,83.80
2019-03-06T06:19:49.544Z,83.60
2019-03-06T06:25:11.567Z,82.80
2019-03-06T06:27:39.854Z,82.80
2019-03-06T06:30:10.593Z,82.80
2019-03-06T06:32:38.816Z,82.70
2019-03-06T06:35:11.693Z,82.40
2019-03-06T06:37:40.423Z,82.50
2019-03-06T06:40:13.433Z,85.00
2019-03-06T06:42:41.988Z,83.60
2019-03-06T06:45:12.161Z,83.70
2019-03-06T06:48:06.709Z,83.80
2019-03-06T06:50:35.112Z,84.00
2019-03-06T06:53:09.340Z,83.00
2019-03-06T06:55:40.833Z,82.80
2019-03-06T06:58:35.173Z,81.90
2019-03-06T07:01:37.061Z,82.80
2019-03-06T07:04:25.077Z,82.70
2019-03-06T07:07:04.353Z,82.90
2019-03-06T07:09:34.492Z,83.80
2019-03-06T07:12:04.362Z,83.80
2019-03-06T07:14:34.220Z,84.60
2019-03-06T07:17:20.749Z,84.80
2019-03-06T07:19:53.609Z,84.00
2019-03-06T07:22:26.284Z,83.40
2019-03-06T07:24:56.438Z,84.80
2019-03-06T07:27:42.848Z,86.30
2019-03-06T07:30:14.152Z,85.90
2019-03-06T07:32:44.021Z,84.00
2019-03-06T07:36:06.017Z,83.20
2019-03-06T07:38:34.303Z,84.10
2019-03-06T07:41:22.530Z,82.60
2019-03-06T07:43:55.089Z,82.00
2019-03-06T07:46:43.317Z,86.20
2019-03-06T07:49:29.620Z,85.10
2019-03-06T07:52:11.693Z,85.30
2019-03-06T07:54:47.522Z,85.90
2019-03-06T07:57:17.730Z,86.20
2019-03-06T07:59:45.945Z,85.30
2019-03-06T08:02:30.945Z,85.90
2019-03-06T08:04:59.305Z,87.30
2019-03-06T08:07:27.841Z,87.30
2019-03-06T08:09:56.125Z,88.60
2019-03-06T08:12:26.325Z,88.40
2019-03-06T08:15:02.251Z,87.50
2019-03-06T08:17:32.125Z,89.30
2019-03-06T08:20:01.986Z,87.90
2019-03-06T08:22:48.090Z,86.60
2019-03-06T08:25:20.937Z,86.80
2019-03-06T08:27:49.353Z,85.70
2019-03-06T08:30:17.566Z,84.60
2019-03-06T08:32:45.808Z,85.80
2019-03-06T08:35:14.021Z,87.40
2019-03-06T08:37:42.244Z,86.50
2019-03-06T08:40:11.489Z,85.40
2019-03-06T08:42:39.724Z,87.90
2019-03-06T08:45:11.625Z,85.80
2019-03-06T08:47:44.140Z,86.00
2019-03-06T08:50:29.885Z,99.90
2019-03-06T08:53:12.234Z,99.90
2019-03-06T08:55:42.105Z,93.00
2019-03-06T08:58:11.977Z,87.90
2019-03-06T09:00:53.824Z,82.40
2019-03-06T09:03:30.460Z,81.20
2019-03-06T09:06:00.319Z,76.90
2019-03-06T09:08:46.680Z,69.60
2019-03-06T09:11:22.389Z,62.80
2019-03-06T09:14:01.269Z,68.80
2019-03-06T09:16:36.920Z,73.50
2019-03-06T09:19:18.897Z,64.10
2019-03-06T09:21:49.045Z,62.70
2019-03-06T09:24:21.688Z,64.80
2019-03-06T09:27:00.824Z,64.60
2019-03-06T09:29:30.697Z,64.10
2019-03-06T09:32:00.732Z,60.90
2019-03-06T09:34:33.551Z,63.40
2019-03-06T09:37:20.085Z,65.90
2019-03-06T09:39:59.308Z,72.50
2019-03-06T09:42:44.463Z,73.50
2019-03-06T09:45:17.049Z,75.20
2019-03-06T09:47:47.176Z,76.20
2019-03-06T09:50:22.988Z,78.10
2019-03-06T09:52:55.557Z,79.90
2019-03-06T09:55:25.438Z,78.90
2019-03-06T09:58:01.510Z,79.90
2019-03-06T10:00:40.190Z,79.30
2019-03-06T10:03:21.629Z,79.60
2019-03-06T10:05:51.672Z,76.60
2019-03-06T10:08:24.528Z,75.90
2019-03-06T10:11:03.651Z,79.30
2019-03-06T10:13:33.515Z,79.60
2019-03-06T10:16:09.356Z,77.60
2019-03-06T10:18:45.092Z,80.20
2019-03-06T10:21:13.605Z,80.70
2019-03-06T10:23:41.900Z,78.20
2019-03-06T10:26:10.131Z,78.10
2019-03-06T10:28:38.348Z,81.90
2019-03-06T10:31:06.971Z,82.90
2019-03-06T10:33:35.272Z,85.40
2019-03-06T10:36:03.954Z,85.90
2019-03-06T10:38:32.173Z,82.60
2019-03-06T10:41:00.733Z,83.60
2019-03-06T10:43:29.031Z,83.20
2019-03-06T10:45:57.640Z,81.40
2019-03-06T10:48:25.938Z,79.70
2019-03-06T10:50:54.170Z,79.00
2019-03-06T10:53:22.465Z,80.00
2019-03-06T10:55:50.701Z,79.10
2019-03-06T10:58:18.920Z,77.70
2019-03-06T11:00:51.813Z,78.40
2019-03-06T11:03:20.033Z,75.90
2019-03-06T11:05:48.433Z,72.80
2019-03-06T11:08:17.001Z,74.70
2019-03-06T11:10:45.408Z,75.10
2019-03-06T11:13:13.632Z,75.70
2019-03-06T11:15:41.937Z,77.20
2019-03-06T11:18:10.245Z,78.50
2019-03-06T11:20:40.691Z,77.00
2019-03-06T11:23:10.133Z,75.70
2019-03-06T11:25:39.491Z,71.80
2019-03-06T11:28:10.272Z,69.90
2019-03-06T11:30:41.910Z,73.50
2019-03-06T11:33:10.668Z,74.00
2019-03-06T11:35:38.909Z,71.60
2019-03-06T11:38:08.168Z,69.10
2019-03-06T11:40:36.760Z,67.00
2019-03-06T11:43:06.217Z,63.70
2019-03-06T11:45:34.981Z,66.80
2019-03-06T11:48:03.205Z,66.00
2019-03-06T11:50:40.400Z,63.10
2019-03-06T11:53:01.641Z,62.80
2019-03-06T11:55:29.877Z,61.60
2019-03-06T11:57:58.103Z,64.60
2019-03-06T12:00:27.968Z,64.50
2019-03-06T12:02:56.188Z,65.00
2019-03-06T12:05:24.429Z,63.50
2019-03-06T12:07:52.990Z,64.60
2019-03-06T12:10:21.496Z,64.90
2019-03-06T12:12:49.813Z,60.10
2019-03-06T12:15:18.061Z,58.60
2019-03-06T12:17:47.402Z,59.00
2019-03-06T12:20:15.681Z,58.20
2019-03-06T12:22:43.900Z,60.00
2019-03-06T12:25:13.173Z,55.30
2019-03-06T12:27:41.409Z,55.80
2019-03-06T12:30:20.056Z,54.50
2019-03-06T12:32:48.280Z,54.00
2019-03-06T12:35:17.236Z,45.00
2019-03-06T12:37:47.173Z,47.40
2019-03-06T12:40:20.060Z,45.10
2019-03-06T12:42:48.289Z,44.50
2019-03-06T12:45:17.350Z,46.30
2019-03-06T12:47:55.354Z,43.10
2019-03-06T12:50:27.281Z,44.50
2019-03-06T12:52:55.812Z,46.90
2019-03-06T12:55:24.290Z,44.60
2019-03-06T12:57:59.185Z,44.40
2019-03-06T13:00:26.797Z,38.70
2019-03-06T13:02:55.413Z,42.20
2019-03-06T13:05:23.906Z,36.40
2019-03-06T13:07:52.237Z,36.50
2019-03-06T13:10:20.718Z,35.40
2019-03-06T13:12:50.154Z,38.40
2019-03-06T13:15:27.194Z,38.50
2019-03-06T13:17:55.597Z,35.90
2019-03-06T13:20:24.154Z,39.50
2019-03-06T13:22:54.173Z,37.00
2019-03-06T13:25:23.480Z,37.50
2019-03-06T13:27:54.872Z,37.40
2019-03-06T13:30:23.311Z,38.00
2019-03-06T13:32:59.002Z,36.70
2019-03-06T13:35:28.652Z,36.20
2019-03-06T13:37:56.960Z,35.90
2019-03-06T13:40:25.232Z,38.50
2019-03-06T13:42:53.492Z,38.40
2019-03-06T13:45:21.876Z,38.50
2019-03-06T13:47:51.011Z,39.50
2019-03-06T13:50:19.756Z,40.80
2019-03-06T13:52:48.337Z,41.60
2019-03-06T13:55:16.928Z,40.70
2019-03-06T13:57:45.640Z,42.70
2019-03-06T14:00:17.874Z,44.00
2019-03-06T14:02:50.088Z,43.60
2019-03-06T14:05:19.160Z,42.30
2019-03-06T14:07:55.887Z,42.80
2019-03-06T14:10:21.829Z,44.90
2019-03-06T14:12:50.341Z,44.90
2019-03-06T14:15:18.896Z,42.40
2019-03-06T14:17:47.133Z,44.40
2019-03-06T14:20:20.713Z,42.30
2019-03-06T14:22:48.950Z,44.20
2019-03-06T14:25:17.533Z,44.30
2019-03-06T14:27:46.049Z,43.40
2019-03-06T14:30:25.601Z,43.60
2019-03-06T14:32:53.848Z,46.00
2019-03-06T14:35:22.238Z,50.30
2019-03-06T14:37:50.468Z,47.30
2019-03-06T14:40:34.600Z,46.20
2019-03-06T14:43:04.733Z,48.50
2019-03-06T14:45:32.961Z,48.10
2019-03-06T14:48:01.514Z,47.70
2019-03-06T14:50:29.738Z,49.60
2019-03-06T14:52:58.358Z,48.50
2019-03-06T14:55:26.653Z,50.90
2019-03-06T14:57:54.896Z,47.40
2019-03-06T15:00:23.288Z,45.20
2019-03-06T15:02:51.534Z,45.70
2019-03-06T15:05:19.921Z,46.90
2019-03-06T15:07:48.382Z,47.20
2019-03-06T15:10:17.540Z,49.00
2019-03-06T15:12:46.029Z,48.40
2019-03-06T15:15:18.021Z,46.50
2019-03-06T15:17:46.365Z,47.70
2019-03-06T15:20:23.124Z,50.90
2019-03-06T15:22:52.604Z,49.80
2019-03-06T15:25:26.824Z,48.00
2019-03-06T15:27:55.153Z,49.20
2019-03-06T15:30:23.380Z,45.00
2019-03-06T15:32:51.675Z,45.10
2019-03-06T15:35:20.172Z,46.20
2019-03-06T15:37:48.417Z,48.00
2019-03-06T15:40:29.956Z,48.90
2019-03-06T15:42:58.192Z,51.90
2019-03-06T15:45:28.328Z,47.30
2019-03-06T15:47:56.761Z,48.10
2019-03-06T15:50:25.148Z,45.60
2019-03-06T15:52:53.384Z,46.50
2019-03-06T15:55:26.413Z,45.90
2019-03-06T15:57:54.934Z,47.40
2019-03-06T16:00:27.288Z,45.40
2019-03-06T16:02:55.966Z,45.80
2019-03-06T16:05:24.185Z,45.80
2019-03-06T16:07:52.429Z,45.10
2019-03-06T16:10:20.649Z,47.60
2019-03-06T16:12:48.905Z,49.00
2019-03-06T16:15:17.124Z,47.20
2019-03-06T16:17:45.364Z,46.30
2019-03-06T16:20:18.738Z,47.60
2019-03-06T16:22:47.737Z,47.00
2019-03-06T16:25:15.958Z,50.20
2019-03-06T16:27:44.373Z,50.20
2019-03-06T16:30:20.360Z,51.30
2019-03-06T16:32:48.606Z,51.00
2019-03-06T16:35:16.906Z,50.60
2019-03-06T16:37:45.208Z,49.10
2019-03-06T16:40:18.861Z,49.60
2019-03-06T16:42:47.657Z,49.80
2019-03-06T16:45:19.849Z,45.40
2019-03-06T16:47:48.264Z,71.40
2019-03-06T16:50:20.064Z,78.00
2019-03-06T16:52:48.375Z,60.40
2019-03-06T16:55:19.186Z,49.70
2019-03-06T16:57:47.872Z,48.40
2019-03-06T17:00:24.304Z,47.00
2019-03-06T17:02:53.031Z,47.00
2019-03-06T17:05:21.692Z,52.20
2019-03-06T17:07:50.189Z,52.20
2019-03-06T17:10:20.612Z,53.70
2019-03-06T17:12:49.032Z,54.50
2019-03-06T17:15:18.069Z,53.80
2019-03-06T17:17:46.397Z,53.50
2019-03-06T17:20:19.909Z,51.20
2019-03-06T17:22:48.440Z,53.40
2019-03-06T17:25:16.665Z,53.90
2019-03-06T17:27:45.161Z,54.80
2019-03-06T17:30:21.513Z,53.20
2019-03-06T17:33:01.418Z,48.10
2019-03-06T17:35:30.864Z,46.90
2019-03-06T17:37:59.156Z,45.20
2019-03-06T17:40:27.853Z,44.10
2019-03-06T17:42:56.381Z,48.00
2019-03-06T17:45:24.636Z,47.90
2019-03-06T17:47:52.952Z,48.40
2019-03-06T17:50:21.192Z,50.30
2019-03-06T17:52:49.416Z,52.00
2019-03-06T17:55:17.657Z,52.50
2019-03-06T17:57:46.164Z,48.00
2019-03-06T18:00:18.886Z,49.20
2019-03-06T18:02:47.105Z,48.20
2019-03-06T18:05:15.352Z,47.80
2019-03-06T18:07:43.654Z,47.50
2019-03-06T18:10:16.576Z,49.80
2019-03-06T18:12:45.097Z,51.00
2019-03-06T18:15:18.748Z,50.10
2019-03-06T18:17:47.245Z,47.60
2019-03-06T18:20:19.189Z,48.60
2019-03-06T18:22:47.411Z,48.40
2019-03-06T18:25:20.318Z,49.60
2019-03-06T18:27:48.540Z,50.40
2019-03-06T18:30:18.193Z,51.40
2019-03-06T18:32:46.688Z,47.30
2019-03-06T18:35:16.924Z,48.10
2019-03-06T18:37:45.316Z,46.90
2019-03-06T18:40:24.152Z,46.80
2019-03-06T18:42:52.384Z,50.80
2019-03-06T18:45:21.174Z,50.80
2019-03-06T18:47:49.469Z,52.60
2019-03-06T18:50:18.918Z,52.80
2019-03-06T18:52:47.476Z,53.10
2019-03-06T18:55:16.651Z,53.90
2019-03-06T18:57:44.883Z,54.20
2019-03-06T19:00:25.649Z,54.20
2019-03-06T19:02:53.941Z,54.20
2019-03-06T19:05:22.453Z,54.30
2019-03-06T19:07:51.020Z,53.50
2019-03-06T19:10:22.515Z,54.50
2019-03-06T19:12:51.113Z,53.00
2019-03-06T19:15:21.552Z,52.60
2019-03-06T19:17:49.773Z,52.70
2019-03-06T19:20:19.356Z,51.20
2019-03-06T19:22:47.821Z,48.90
2019-03-06T19:25:16.502Z,44.30
2019-03-06T19:27:44.903Z,44.30
2019-03-06T19:30:26.602Z,44.40
2019-03-06T19:32:55.193Z,46.30
2019-03-06T19:35:27.509Z,46.50
2019-03-06T19:37:55.805Z,49.80
2019-03-06T19:40:24.328Z,49.20
2019-03-06T19:42:52.614Z,50.20
2019-03-06T19:45:24.498Z,51.60
2019-03-06T19:47:52.720Z,48.00
2019-03-06T19:50:25.485Z,49.70
2019-03-06T19:52:53.291Z,50.50
2019-03-06T19:55:21.980Z,52.30
2019-03-06T19:57:57.388Z,52.00
2019-03-06T20:00:29.827Z,50.80
2019-03-06T20:02:58.787Z,48.80
2019-03-06T20:05:31.526Z,50.20
2019-03-06T20:08:00.896Z,50.80
2019-03-06T20:10:29.141Z,52.10
2019-03-06T20:12:57.364Z,52.40
2019-03-06T20:15:25.692Z,53.60
2019-03-06T20:17:54.087Z,54.00
2019-03-06T20:20:22.328Z,54.30
2019-03-06T20:22:50.553Z,53.90
2019-03-06T20:25:19.410Z,54.80
2019-03-06T20:27:47.772Z,54.80
2019-03-06T20:30:20.880Z,54.60
2019-03-06T20:32:49.093Z,55.20
2019-03-06T20:35:25.453Z,55.40
2019-03-06T20:37:53.681Z,54.70
2019-03-06T20:40:22.232Z,55.20
2019-03-06T20:42:50.521Z,54.50
2019-03-06T20:45:19.200Z,53.80
2019-03-06T20:47:47.428Z,52.90
2019-03-06T20:50:17.009Z,54.80
2019-03-06T20:52:45.237Z,53.40
2019-03-06T20:55:15.346Z,55.10
2019-03-06T20:57:43.684Z,54.10
2019-03-06T21:00:25.694Z,53.40
2019-03-06T21:02:53.991Z,53.00
2019-03-06T21:05:23.220Z,52.90
2019-03-06T21:07:51.745Z,52.50
2019-03-06T21:10:20.709Z,53.00
2019-03-06T21:12:48.941Z,53.70
2019-03-06T21:15:18.620Z,54.40
2019-03-06T21:17:47.104Z,54.10
2019-03-06T21:20:17.249Z,54.30
2019-03-06T21:22:47.409Z,53.40
2019-03-06T21:25:17.917Z,54.10
2019-03-06T21:27:46.300Z,52.30
2019-03-06T21:30:18.893Z,53.10
2019-03-06T21:32:47.229Z,52.90
2019-03-06T21:35:15.796Z,54.00
2019-03-06T21:37:44.377Z,54.90
2019-03-06T21:40:12.595Z,52.50
2019-03-06T21:42:40.837Z,52.30
2019-03-06T21:45:11.851Z,52.30
2019-03-06T21:47:40.453Z,53.50
2019-03-06T21:50:13.713Z,54.50
2019-03-06T21:52:42.025Z,55.10
2019-03-06T21:55:12.559Z,54.20
2019-03-06T21:57:40.792Z,54.10
2019-03-06T22:00:22.735Z,54.40
2019-03-06T22:02:51.321Z,54.20
2019-03-06T22:05:19.637Z,53.70
2019-03-06T22:07:50.296Z,54.70
2019-03-06T22:10:17.889Z,55.30
2019-03-06T22:12:46.117Z,54.30
2019-03-06T22:15:17.036Z,56.20
2019-03-06T22:17:45.274Z,55.60
2019-03-06T22:20:14.428Z,55.70
2019-03-06T22:22:42.670Z,56.00
2019-03-06T22:25:12.729Z,56.20
2019-03-06T22:27:40.960Z,56.10
2019-03-06T22:30:22.435Z,54.90
2019-03-06T22:32:49.733Z,55.30
2019-03-06T22:35:17.957Z,55.30
2019-03-06T22:37:46.192Z,55.00
2019-03-06T22:40:19.623Z,54.20
2019-03-06T22:42:47.854Z,52.40
2019-03-06T22:45:18.277Z,53.10
2019-03-06T22:47:46.513Z,52.70
2019-03-06T22:50:15.576Z,52.50
2019-03-06T22:52:43.808Z,52.00
2019-03-06T22:55:15.028Z,53.60
2019-03-06T22:57:43.256Z,52.90
2019-03-06T23:00:29.909Z,52.90
2019-03-06T23:02:58.384Z,53.80
2019-03-06T23:05:28.316Z,54.20
2019-03-06T23:07:56.560Z,53.70
2019-03-06T23:10:25.093Z,53.90
2019-03-06T23:12:53.328Z,54.40
2019-03-06T23:15:21.548Z,54.90
2019-03-06T23:17:49.780Z,55.80
2019-03-06T23:20:18.000Z,55.00
2019-03-06T23:22:46.232Z,55.10
2019-03-06T23:25:14.456Z,54.70
2019-03-06T23:27:42.688Z,55.10
2019-03-06T23:30:15.414Z,54.60
2019-03-06T23:32:43.645Z,55.30
2019-03-06T23:35:11.866Z,54.00
2019-03-06T23:37:40.096Z,56.50
2019-03-06T23:40:10.420Z,57.10
2019-03-06T23:42:38.651Z,55.80
2019-03-06T23:45:08.416Z,56.10
2019-03-06T23:47:36.649Z,56.50
2019-03-06T23:50:06.208Z,55.70
2019-03-06T23:52:36.081Z,56.00
2019-03-06T23:55:04.382Z,56.10
2019-03-06T23:57:32.669Z,55.90
